sensor_id;sensor_type;location;lat;lon;timestamp;P1;durP1;ratioP1;P2;durP2;ratioP2
15921;SDS011;8060;50.948;3.146;2024-03-06T00:00:03;15.73;;;11.50;;
15921;SDS011;8060;50.948;3.146;2024-03-06T00:02:34;16.80;;;11.37;;
15921;SDS011;8060;50.948;3.146;2024-03-06T00:05:02;15.53;;;11.10;;
15921;SDS011;8060;50.948;3.146;2024-03-06T00:07:31;16.23;;;11.23;;
15921;SDS011;8060;50.948;3.146;2024-03-06T00:09:59;14.27;;;11.23;;
15921;SDS011;8060;50.948;3.146;2024-03-06T00:12:27;17.00;;;12.27;;
15921;SDS011;8060;50.948;3.146;2024-03-06T00:14:56;18.33;;;11.70;;
15921;SDS011;8060;50.948;3.146;2024-03-06T00:17:25;15.43;;;11.37;;
15921;SDS011;8060;50.948;3.146;2024-03-06T00:19:54;16.40;;;11.10;;
15921;SDS011;8060;50.948;3.146;2024-03-06T00:22:22;16.17;;;11.60;;
15921;SDS011;8060;50.948;3.146;2024-03-06T00:24:50;15.50;;;11.47;;
15921;SDS011;8060;50.948;3.146;2024-03-06T00:27:18;18.47;;;11.60;;
15921;SDS011;8060;50.948;3.146;2024-03-06T00:29:46;14.60;;;11.17;;
15921;SDS011;8060;50.948;3.146;2024-03-06T00:32:14;17.97;;;11.77;;
15921;SDS011;8060;50.948;3.146;2024-03-06T00:34:44;16.00;;;12.10;;
15921;SDS011;8060;50.948;3.146;2024-03-06T00:37:12;16.20;;;11.57;;
15921;SDS011;8060;50.948;3.146;2024-03-06T00:39:40;17.50;;;11.73;;
15921;SDS011;8060;50.948;3.146;2024-03-06T00:42:08;17.23;;;12.30;;
15921;SDS011;8060;50.948;3.146;2024-03-06T00:44:40;16.87;;;12.37;;
15921;SDS011;8060;50.948;3.146;2024-03-06T00:47:08;19.83;;;13.00;;
15921;SDS011;8060;50.948;3.146;2024-03-06T00:49:36;19.43;;;13.07;;
15921;SDS011;8060;50.948;3.146;2024-03-06T00:52:06;17.57;;;13.00;;
15921;SDS011;8060;50.948;3.146;2024-03-06T00:54:35;15.43;;;11.40;;
15921;SDS011;8060;50.948;3.146;2024-03-06T00:57:03;14.80;;;11.40;;
15921;SDS011;8060;50.948;3.146;2024-03-06T00:59:32;16.83;;;12.33;;
15921;SDS011;8060;50.948;3.146;2024-03-06T01:02:00;16.33;;;12.13;;
15921;SDS011;8060;50.948;3.146;2024-03-06T01:04:28;16.77;;;12.03;;
15921;SDS011;8060;50.948;3.146;2024-03-06T01:06:57;19.47;;;12.03;;
15921;SDS011;8060;50.948;3.146;2024-03-06T01:09:27;17.97;;;12.00;;
15921;SDS011;8060;50.948;3.146;2024-03-06T01:11:55;16.57;;;12.20;;
15921;SDS011;8060;50.948;3.146;2024-03-06T01:14:23;16.47;;;12.40;;
15921;SDS011;8060;50.948;3.146;2024-03-06T01:16:52;19.77;;;12.77;;
15921;SDS011;8060;50.948;3.146;2024-03-06T01:19:20;18.47;;;12.23;;
15921;SDS011;8060;50.948;3.146;2024-03-06T01:21:49;16.63;;;12.43;;
15921;SDS011;8060;50.948;3.146;2024-03-06T01:24:17;17.23;;;13.13;;
15921;SDS011;8060;50.948;3.146;2024-03-06T01:26:46;23.10;;;14.57;;
15921;SDS011;8060;50.948;3.146;2024-03-06T01:29:15;18.97;;;13.93;;
15921;SDS011;8060;50.948;3.146;2024-03-06T01:31:44;20.10;;;13.07;;
15921;SDS011;8060;50.948;3.146;2024-03-06T01:34:13;17.17;;;14.20;;
15921;SDS011;8060;50.948;3.146;2024-03-06T01:36:41;21.70;;;14.87;;
15921;SDS011;8060;50.948;3.146;2024-03-06T01:39:09;17.77;;;14.27;;
15921;SDS011;8060;50.948;3.146;2024-03-06T01:41:37;23.03;;;15.80;;
15921;SDS011;8060;50.948;3.146;2024-03-06T01:44:13;17.63;;;14.37;;
15921;SDS011;8060;50.948;3.146;2024-03-06T01:46:42;18.40;;;13.90;;
15921;SDS011;8060;50.948;3.146;2024-03-06T01:49:11;21.33;;;15.33;;
15921;SDS011;8060;50.948;3.146;2024-03-06T01:51:51;19.33;;;14.67;;
15921;SDS011;8060;50.948;3.146;2024-03-06T01:54:22;18.13;;;14.90;;
15921;SDS011;8060;50.948;3.146;2024-03-06T01:56:51;21.27;;;14.70;;
15921;SDS011;8060;50.948;3.146;2024-03-06T01:59:22;22.90;;;14.07;;
15921;SDS011;8060;50.948;3.146;2024-03-06T02:02:02;19.70;;;14.13;;
15921;SDS011;8060;50.948;3.146;2024-03-06T02:04:31;28.80;;;15.73;;
15921;SDS011;8060;50.948;3.146;2024-03-06T02:07:00;19.43;;;15.17;;
15921;SDS011;8060;50.948;3.146;2024-03-06T02:09:29;17.90;;;14.47;;
15921;SDS011;8060;50.948;3.146;2024-03-06T02:11:58;20.83;;;14.53;;
15921;SDS011;8060;50.948;3.146;2024-03-06T02:14:28;22.37;;;15.10;;
15921;SDS011;8060;50.948;3.146;2024-03-06T02:16:56;20.67;;;14.23;;
15921;SDS011;8060;50.948;3.146;2024-03-06T02:19:24;19.23;;;14.30;;
15921;SDS011;8060;50.948;3.146;2024-03-06T02:22:09;17.90;;;14.30;;
15921;SDS011;8060;50.948;3.146;2024-03-06T02:24:38;21.63;;;15.17;;
15921;SDS011;8060;50.948;3.146;2024-03-06T02:27:12;26.83;;;15.87;;
15921;SDS011;8060;50.948;3.146;2024-03-06T02:29:40;22.33;;;15.87;;
15921;SDS011;8060;50.948;3.146;2024-03-06T02:32:08;21.97;;;15.57;;
15921;SDS011;8060;50.948;3.146;2024-03-06T02:34:39;19.20;;;15.73;;
15921;SDS011;8060;50.948;3.146;2024-03-06T02:37:09;23.87;;;15.37;;
15921;SDS011;8060;50.948;3.146;2024-03-06T02:39:37;20.83;;;15.67;;
15921;SDS011;8060;50.948;3.146;2024-03-06T02:42:05;28.10;;;16.27;;
15921;SDS011;8060;50.948;3.146;2024-03-06T02:44:34;21.67;;;15.80;;
15921;SDS011;8060;50.948;3.146;2024-03-06T02:47:03;20.03;;;15.27;;
15921;SDS011;8060;50.948;3.146;2024-03-06T02:49:31;20.13;;;15.20;;
15921;SDS011;8060;50.948;3.146;2024-03-06T02:51:59;21.63;;;15.30;;
15921;SDS011;8060;50.948;3.146;2024-03-06T02:54:29;23.00;;;15.43;;
15921;SDS011;8060;50.948;3.146;2024-03-06T02:56:57;20.97;;;15.47;;
15921;SDS011;8060;50.948;3.146;2024-03-06T02:59:25;20.70;;;15.20;;
15921;SDS011;8060;50.948;3.146;2024-03-06T03:01:53;20.97;;;16.00;;
15921;SDS011;8060;50.948;3.146;2024-03-06T03:04:22;22.90;;;16.23;;
15921;SDS011;8060;50.948;3.146;2024-03-06T03:06:50;24.93;;;16.73;;
15921;SDS011;8060;50.948;3.146;2024-03-06T03:09:18;23.20;;;16.00;;
15921;SDS011;8060;50.948;3.146;2024-03-06T03:11:48;21.00;;;14.97;;
15921;SDS011;8060;50.948;3.146;2024-03-06T03:14:16;23.23;;;16.10;;
15921;SDS011;8060;50.948;3.146;2024-03-06T03:16:45;25.37;;;16.67;;
15921;SDS011;8060;50.948;3.146;2024-03-06T03:19:13;25.13;;;16.30;;
15921;SDS011;8060;50.948;3.146;2024-03-06T03:21:43;24.77;;;15.93;;
15921;SDS011;8060;50.948;3.146;2024-03-06T03:24:12;23.00;;;16.33;;
15921;SDS011;8060;50.948;3.146;2024-03-06T03:26:40;25.43;;;17.60;;
15921;SDS011;8060;50.948;3.146;2024-03-06T03:29:09;27.97;;;17.27;;
15921;SDS011;8060;50.948;3.146;2024-03-06T03:31:38;31.63;;;19.73;;
15921;SDS011;8060;50.948;3.146;2024-03-06T03:34:06;35.87;;;22.23;;
15921;SDS011;8060;50.948;3.146;2024-03-06T03:36:35;43.70;;;26.30;;
15921;SDS011;8060;50.948;3.146;2024-03-06T03:39:06;44.97;;;25.73;;
15921;SDS011;8060;50.948;3.146;2024-03-06T03:41:42;45.83;;;26.13;;
15921;SDS011;8060;50.948;3.146;2024-03-06T03:44:13;42.60;;;25.17;;
15921;SDS011;8060;50.948;3.146;2024-03-06T03:46:41;39.43;;;23.57;;
15921;SDS011;8060;50.948;3.146;2024-03-06T03:49:10;44.23;;;25.67;;
15921;SDS011;8060;50.948;3.146;2024-03-06T03:51:39;39.10;;;23.90;;
15921;SDS011;8060;50.948;3.146;2024-03-06T03:54:07;42.97;;;25.77;;
15921;SDS011;8060;50.948;3.146;2024-03-06T03:56:36;42.40;;;24.90;;
15921;SDS011;8060;50.948;3.146;2024-03-06T03:59:04;39.77;;;24.97;;
15921;SDS011;8060;50.948;3.146;2024-03-06T04:01:33;44.63;;;26.40;;
15921;SDS011;8060;50.948;3.146;2024-03-06T04:04:01;39.67;;;25.47;;
15921;SDS011;8060;50.948;3.146;2024-03-06T04:06:29;45.07;;;26.17;;
15921;SDS011;8060;50.948;3.146;2024-03-06T04:08:58;46.03;;;26.70;;
15921;SDS011;8060;50.948;3.146;2024-03-06T04:11:26;42.97;;;25.20;;
15921;SDS011;8060;50.948;3.146;2024-03-06T04:13:54;44.67;;;26.80;;
15921;SDS011;8060;50.948;3.146;2024-03-06T04:16:22;44.90;;;27.00;;
15921;SDS011;8060;50.948;3.146;2024-03-06T04:18:52;46.23;;;27.97;;
15921;SDS011;8060;50.948;3.146;2024-03-06T04:21:20;46.57;;;28.63;;
15921;SDS011;8060;50.948;3.146;2024-03-06T04:23:49;49.10;;;28.27;;
15921;SDS011;8060;50.948;3.146;2024-03-06T04:26:17;48.60;;;29.50;;
15921;SDS011;8060;50.948;3.146;2024-03-06T04:28:45;46.50;;;27.30;;
15921;SDS011;8060;50.948;3.146;2024-03-06T04:31:13;45.67;;;27.00;;
15921;SDS011;8060;50.948;3.146;2024-03-06T04:33:41;43.80;;;26.70;;
15921;SDS011;8060;50.948;3.146;2024-03-06T04:36:11;48.57;;;29.57;;
15921;SDS011;8060;50.948;3.146;2024-03-06T04:38:39;44.53;;;28.27;;
15921;SDS011;8060;50.948;3.146;2024-03-06T04:41:07;50.90;;;30.27;;
15921;SDS011;8060;50.948;3.146;2024-03-06T04:43:37;46.07;;;27.93;;
15921;SDS011;8060;50.948;3.146;2024-03-06T04:46:05;45.33;;;28.83;;
15921;SDS011;8060;50.948;3.146;2024-03-06T04:48:33;48.73;;;29.10;;
15921;SDS011;8060;50.948;3.146;2024-03-06T04:51:01;44.40;;;26.73;;
15921;SDS011;8060;50.948;3.146;2024-03-06T04:53:31;46.53;;;27.53;;
15921;SDS011;8060;50.948;3.146;2024-03-06T04:55:59;44.70;;;26.83;;
15921;SDS011;8060;50.948;3.146;2024-03-06T04:58:27;48.50;;;27.73;;
15921;SDS011;8060;50.948;3.146;2024-03-06T05:00:55;44.13;;;27.20;;
15921;SDS011;8060;50.948;3.146;2024-03-06T05:03:23;51.43;;;30.17;;
15921;SDS011;8060;50.948;3.146;2024-03-06T05:06:09;52.03;;;29.40;;
15921;SDS011;8060;50.948;3.146;2024-03-06T05:08:56;50.77;;;29.57;;
15921;SDS011;8060;50.948;3.146;2024-03-06T05:11:41;53.83;;;30.67;;
15921;SDS011;8060;50.948;3.146;2024-03-06T05:14:27;54.57;;;30.53;;
15921;SDS011;8060;50.948;3.146;2024-03-06T05:17:13;50.53;;;28.87;;
15921;SDS011;8060;50.948;3.146;2024-03-06T05:19:58;54.70;;;28.97;;
15921;SDS011;8060;50.948;3.146;2024-03-06T05:22:44;52.67;;;28.73;;
15921;SDS011;8060;50.948;3.146;2024-03-06T05:25:31;45.37;;;27.30;;
15921;SDS011;8060;50.948;3.146;2024-03-06T05:28:16;47.00;;;25.67;;
15921;SDS011;8060;50.948;3.146;2024-03-06T05:31:13;42.60;;;24.07;;
15921;SDS011;8060;50.948;3.146;2024-03-06T05:34:01;37.73;;;24.30;;
15921;SDS011;8060;50.948;3.146;2024-03-06T05:36:48;37.67;;;25.60;;
15921;SDS011;8060;50.948;3.146;2024-03-06T05:39:34;36.17;;;25.37;;
15921;SDS011;8060;50.948;3.146;2024-03-06T05:42:21;36.83;;;25.70;;
15921;SDS011;8060;50.948;3.146;2024-03-06T05:45:07;44.40;;;27.10;;
15921;SDS011;8060;50.948;3.146;2024-03-06T05:47:55;34.77;;;24.57;;
15921;SDS011;8060;50.948;3.146;2024-03-06T05:50:41;37.77;;;25.23;;
15921;SDS011;8060;50.948;3.146;2024-03-06T05:53:28;44.17;;;25.77;;
15921;SDS011;8060;50.948;3.146;2024-03-06T05:56:14;36.30;;;25.70;;
15921;SDS011;8060;50.948;3.146;2024-03-06T05:59:00;39.37;;;24.63;;
15921;SDS011;8060;50.948;3.146;2024-03-06T06:01:31;37.90;;;25.77;;
15921;SDS011;8060;50.948;3.146;2024-03-06T06:03:59;34.13;;;24.53;;
15921;SDS011;8060;50.948;3.146;2024-03-06T06:06:32;35.30;;;25.30;;
15921;SDS011;8060;50.948;3.146;2024-03-06T06:09:00;33.47;;;25.20;;
15921;SDS011;8060;50.948;3.146;2024-03-06T06:11:30;38.00;;;25.33;;
15921;SDS011;8060;50.948;3.146;2024-03-06T06:13:58;38.10;;;25.70;;
15921;SDS011;8060;50.948;3.146;2024-03-06T06:16:32;40.70;;;26.57;;
15921;SDS011;8060;50.948;3.146;2024-03-06T06:19:02;40.43;;;25.80;;
15921;SDS011;8060;50.948;3.146;2024-03-06T06:21:32;36.87;;;25.27;;
15921;SDS011;8060;50.948;3.146;2024-03-06T06:24:02;45.90;;;25.60;;
15921;SDS011;8060;50.948;3.146;2024-03-06T06:26:30;38.17;;;25.00;;
15921;SDS011;8060;50.948;3.146;2024-03-06T06:28:59;46.53;;;25.83;;
15921;SDS011;8060;50.948;3.146;2024-03-06T06:31:29;47.77;;;28.33;;
15921;SDS011;8060;50.948;3.146;2024-03-06T06:33:57;47.20;;;28.13;;
15921;SDS011;8060;50.948;3.146;2024-03-06T06:36:25;44.13;;;28.03;;
15921;SDS011;8060;50.948;3.146;2024-03-06T06:38:53;50.13;;;33.07;;
15921;SDS011;8060;50.948;3.146;2024-03-06T06:41:21;58.30;;;30.67;;
15921;SDS011;8060;50.948;3.146;2024-03-06T06:43:50;55.97;;;29.67;;
15921;SDS011;8060;50.948;3.146;2024-03-06T06:46:18;56.20;;;31.17;;
15921;SDS011;8060;50.948;3.146;2024-03-06T06:48:48;65.97;;;34.03;;
15921;SDS011;8060;50.948;3.146;2024-03-06T06:51:17;80.50;;;36.47;;
15921;SDS011;8060;50.948;3.146;2024-03-06T06:53:45;94.67;;;38.23;;
15921;SDS011;8060;50.948;3.146;2024-03-06T06:56:13;96.37;;;38.60;;
15921;SDS011;8060;50.948;3.146;2024-03-06T06:58:41;96.57;;;38.33;;
15921;SDS011;8060;50.948;3.146;2024-03-06T07:01:09;93.57;;;37.27;;
15921;SDS011;8060;50.948;3.146;2024-03-06T07:03:38;103.67;;;40.60;;
15921;SDS011;8060;50.948;3.146;2024-03-06T07:06:07;103.17;;;38.13;;
15921;SDS011;8060;50.948;3.146;2024-03-06T07:08:37;100.67;;;39.80;;
15921;SDS011;8060;50.948;3.146;2024-03-06T07:11:05;116.00;;;43.20;;
15921;SDS011;8060;50.948;3.146;2024-03-06T07:13:33;112.33;;;45.03;;
15921;SDS011;8060;50.948;3.146;2024-03-06T07:16:02;113.80;;;43.47;;
15921;SDS011;8060;50.948;3.146;2024-03-06T07:18:31;100.37;;;41.87;;
15921;SDS011;8060;50.948;3.146;2024-03-06T07:20:59;91.70;;;39.77;;
15921;SDS011;8060;50.948;3.146;2024-03-06T07:23:29;88.70;;;39.23;;
15921;SDS011;8060;50.948;3.146;2024-03-06T07:25:57;87.17;;;38.97;;
15921;SDS011;8060;50.948;3.146;2024-03-06T07:28:25;72.53;;;36.60;;
15921;SDS011;8060;50.948;3.146;2024-03-06T07:30:54;81.10;;;36.87;;
15921;SDS011;8060;50.948;3.146;2024-03-06T07:33:22;66.47;;;34.13;;
15921;SDS011;8060;50.948;3.146;2024-03-06T07:35:50;78.90;;;34.93;;
15921;SDS011;8060;50.948;3.146;2024-03-06T07:38:18;66.93;;;34.23;;
15921;SDS011;8060;50.948;3.146;2024-03-06T07:40:48;56.23;;;33.93;;
15921;SDS011;8060;50.948;3.146;2024-03-06T07:43:16;59.70;;;31.47;;
15921;SDS011;8060;50.948;3.146;2024-03-06T07:45:44;53.63;;;32.30;;
15921;SDS011;8060;50.948;3.146;2024-03-06T07:48:14;59.60;;;31.67;;
15921;SDS011;8060;50.948;3.146;2024-03-06T07:50:42;56.73;;;30.97;;
15921;SDS011;8060;50.948;3.146;2024-03-06T07:53:10;47.53;;;29.03;;
15921;SDS011;8060;50.948;3.146;2024-03-06T07:55:38;49.67;;;29.50;;
15921;SDS011;8060;50.948;3.146;2024-03-06T07:58:08;44.50;;;29.40;;
15921;SDS011;8060;50.948;3.146;2024-03-06T08:00:36;44.03;;;29.13;;
15921;SDS011;8060;50.948;3.146;2024-03-06T08:03:05;42.00;;;28.13;;
15921;SDS011;8060;50.948;3.146;2024-03-06T08:05:33;37.73;;;27.10;;
15921;SDS011;8060;50.948;3.146;2024-03-06T08:08:01;39.97;;;26.23;;
15921;SDS011;8060;50.948;3.146;2024-03-06T08:10:31;38.67;;;25.93;;
15921;SDS011;8060;50.948;3.146;2024-03-06T08:13:00;35.33;;;26.87;;
15921;SDS011;8060;50.948;3.146;2024-03-06T08:15:30;40.67;;;26.37;;
15921;SDS011;8060;50.948;3.146;2024-03-06T08:17:59;38.33;;;25.40;;
15921;SDS011;8060;50.948;3.146;2024-03-06T08:20:27;35.03;;;25.37;;
15921;SDS011;8060;50.948;3.146;2024-03-06T08:22:55;31.97;;;23.47;;
15921;SDS011;8060;50.948;3.146;2024-03-06T08:25:24;30.03;;;23.30;;
15921;SDS011;8060;50.948;3.146;2024-03-06T08:27:52;31.27;;;22.37;;
15921;SDS011;8060;50.948;3.146;2024-03-06T08:30:20;33.70;;;21.27;;
15921;SDS011;8060;50.948;3.146;2024-03-06T08:32:50;36.03;;;22.33;;
15921;SDS011;8060;50.948;3.146;2024-03-06T08:35:19;32.53;;;23.43;;
15921;SDS011;8060;50.948;3.146;2024-03-06T08:37:48;35.13;;;23.53;;
15921;SDS011;8060;50.948;3.146;2024-03-06T08:40:17;31.77;;;23.80;;
15921;SDS011;8060;50.948;3.146;2024-03-06T08:42:45;32.30;;;24.37;;
15921;SDS011;8060;50.948;3.146;2024-03-06T08:45:15;33.40;;;25.33;;
15921;SDS011;8060;50.948;3.146;2024-03-06T08:47:44;37.53;;;25.67;;
15921;SDS011;8060;50.948;3.146;2024-03-06T08:50:15;35.97;;;25.23;;
15921;SDS011;8060;50.948;3.146;2024-03-06T08:52:44;35.50;;;25.57;;
15921;SDS011;8060;50.948;3.146;2024-03-06T08:55:12;39.70;;;26.03;;
15921;SDS011;8060;50.948;3.146;2024-03-06T08:57:41;39.80;;;26.27;;
15921;SDS011;8060;50.948;3.146;2024-03-06T09:00:10;39.53;;;27.60;;
15921;SDS011;8060;50.948;3.146;2024-03-06T09:02:38;39.30;;;26.23;;
15921;SDS011;8060;50.948;3.146;2024-03-06T09:05:08;42.17;;;26.40;;
15921;SDS011;8060;50.948;3.146;2024-03-06T09:07:40;39.77;;;25.47;;
15921;SDS011;8060;50.948;3.146;2024-03-06T09:10:09;33.53;;;24.17;;
15921;SDS011;8060;50.948;3.146;2024-03-06T09:12:37;39.47;;;26.17;;
15921;SDS011;8060;50.948;3.146;2024-03-06T09:15:06;35.17;;;25.17;;
15921;SDS011;8060;50.948;3.146;2024-03-06T09:17:35;37.73;;;25.40;;
15921;SDS011;8060;50.948;3.146;2024-03-06T09:20:04;40.60;;;26.67;;
15921;SDS011;8060;50.948;3.146;2024-03-06T09:22:37;36.50;;;24.27;;
15921;SDS011;8060;50.948;3.146;2024-03-06T09:25:07;35.97;;;25.83;;
15921;SDS011;8060;50.948;3.146;2024-03-06T09:27:36;37.23;;;25.70;;
15921;SDS011;8060;50.948;3.146;2024-03-06T09:30:05;41.03;;;26.37;;
15921;SDS011;8060;50.948;3.146;2024-03-06T09:32:35;37.23;;;25.77;;
15921;SDS011;8060;50.948;3.146;2024-03-06T09:35:05;38.57;;;25.53;;
15921;SDS011;8060;50.948;3.146;2024-03-06T09:37:34;36.53;;;24.63;;
15921;SDS011;8060;50.948;3.146;2024-03-06T09:40:02;33.07;;;25.27;;
15921;SDS011;8060;50.948;3.146;2024-03-06T09:42:32;29.67;;;23.37;;
15921;SDS011;8060;50.948;3.146;2024-03-06T09:45:00;28.50;;;22.80;;
15921;SDS011;8060;50.948;3.146;2024-03-06T09:47:29;39.53;;;23.30;;
15921;SDS011;8060;50.948;3.146;2024-03-06T09:49:59;34.97;;;23.40;;
15921;SDS011;8060;50.948;3.146;2024-03-06T09:52:32;31.27;;;22.83;;
15921;SDS011;8060;50.948;3.146;2024-03-06T09:55:02;28.63;;;21.20;;
15921;SDS011;8060;50.948;3.146;2024-03-06T09:57:33;30.87;;;21.50;;
15921;SDS011;8060;50.948;3.146;2024-03-06T10:00:02;26.33;;;19.93;;
15921;SDS011;8060;50.948;3.146;2024-03-06T10:02:34;27.33;;;19.00;;
15921;SDS011;8060;50.948;3.146;2024-03-06T10:05:18;25.00;;;18.50;;
15921;SDS011;8060;50.948;3.146;2024-03-06T10:07:49;22.03;;;16.87;;
15921;SDS011;8060;50.948;3.146;2024-03-06T10:10:19;21.60;;;15.83;;
15921;SDS011;8060;50.948;3.146;2024-03-06T10:12:50;21.87;;;14.90;;
15921;SDS011;8060;50.948;3.146;2024-03-06T10:15:18;24.00;;;15.03;;
15921;SDS011;8060;50.948;3.146;2024-03-06T10:17:48;19.23;;;14.30;;
15921;SDS011;8060;50.948;3.146;2024-03-06T10:20:20;17.73;;;13.10;;
15921;SDS011;8060;50.948;3.146;2024-03-06T10:22:49;18.53;;;12.23;;
15921;SDS011;8060;50.948;3.146;2024-03-06T10:25:24;17.63;;;12.73;;
15921;SDS011;8060;50.948;3.146;2024-03-06T10:28:07;23.13;;;14.83;;
15921;SDS011;8060;50.948;3.146;2024-03-06T10:30:37;19.37;;;13.13;;
15921;SDS011;8060;50.948;3.146;2024-03-06T10:33:09;22.00;;;13.13;;
15921;SDS011;8060;50.948;3.146;2024-03-06T10:35:39;13.57;;;10.10;;
15921;SDS011;8060;50.948;3.146;2024-03-06T10:38:08;16.80;;;10.63;;
15921;SDS011;8060;50.948;3.146;2024-03-06T10:40:38;17.00;;;12.47;;
15921;SDS011;8060;50.948;3.146;2024-03-06T10:43:09;18.87;;;13.80;;
15921;SDS011;8060;50.948;3.146;2024-03-06T10:45:40;15.80;;;12.53;;
15921;SDS011;8060;50.948;3.146;2024-03-06T10:48:12;15.30;;;10.07;;
15921;SDS011;8060;50.948;3.146;2024-03-06T10:50:42;16.67;;;12.13;;
15921;SDS011;8060;50.948;3.146;2024-03-06T10:53:13;18.23;;;12.50;;
15921;SDS011;8060;50.948;3.146;2024-03-06T10:55:47;12.30;;;7.57;;
15921;SDS011;8060;50.948;3.146;2024-03-06T10:58:18;8.83;;;6.87;;
15921;SDS011;8060;50.948;3.146;2024-03-06T11:00:47;12.80;;;7.23;;
15921;SDS011;8060;50.948;3.146;2024-03-06T11:03:16;10.03;;;5.07;;
15921;SDS011;8060;50.948;3.146;2024-03-06T11:05:44;9.70;;;7.90;;
15921;SDS011;8060;50.948;3.146;2024-03-06T11:08:15;9.77;;;7.20;;
15921;SDS011;8060;50.948;3.146;2024-03-06T11:10:44;14.43;;;8.53;;
15921;SDS011;8060;50.948;3.146;2024-03-06T11:13:22;7.43;;;6.07;;
15921;SDS011;8060;50.948;3.146;2024-03-06T11:15:53;10.27;;;7.57;;
15921;SDS011;8060;50.948;3.146;2024-03-06T11:18:41;14.43;;;8.37;;
15921;SDS011;8060;50.948;3.146;2024-03-06T11:21:28;14.67;;;10.23;;
15921;SDS011;8060;50.948;3.146;2024-03-06T11:24:13;15.60;;;9.73;;
15921;SDS011;8060;50.948;3.146;2024-03-06T11:26:43;15.67;;;11.13;;
15921;SDS011;8060;50.948;3.146;2024-03-06T11:29:16;14.90;;;11.13;;
15921;SDS011;8060;50.948;3.146;2024-03-06T11:32:02;13.53;;;11.20;;
15921;SDS011;8060;50.948;3.146;2024-03-06T11:34:34;16.07;;;10.47;;
15921;SDS011;8060;50.948;3.146;2024-03-06T11:37:03;17.03;;;11.27;;
15921;SDS011;8060;50.948;3.146;2024-03-06T11:39:33;13.43;;;11.20;;
15921;SDS011;8060;50.948;3.146;2024-03-06T11:42:03;12.80;;;10.20;;
15921;SDS011;8060;50.948;3.146;2024-03-06T11:44:36;13.33;;;9.30;;
15921;SDS011;8060;50.948;3.146;2024-03-06T11:47:05;14.60;;;9.83;;
15921;SDS011;8060;50.948;3.146;2024-03-06T11:49:36;13.63;;;9.43;;
15921;SDS011;8060;50.948;3.146;2024-03-06T11:52:05;13.07;;;9.93;;
15921;SDS011;8060;50.948;3.146;2024-03-06T11:54:35;12.10;;;10.03;;
15921;SDS011;8060;50.948;3.146;2024-03-06T11:57:04;14.10;;;9.77;;
15921;SDS011;8060;50.948;3.146;2024-03-06T11:59:33;18.17;;;9.77;;
15921;SDS011;8060;50.948;3.146;2024-03-06T12:02:06;12.80;;;9.83;;
15921;SDS011;8060;50.948;3.146;2024-03-06T12:04:36;13.33;;;10.73;;
15921;SDS011;8060;50.948;3.146;2024-03-06T12:07:06;14.87;;;11.30;;
15921;SDS011;8060;50.948;3.146;2024-03-06T12:09:37;14.20;;;12.03;;
15921;SDS011;8060;50.948;3.146;2024-03-06T12:12:09;17.63;;;12.00;;
15921;SDS011;8060;50.948;3.146;2024-03-06T12:14:38;17.00;;;13.10;;
15921;SDS011;8060;50.948;3.146;2024-03-06T12:17:12;15.10;;;12.33;;
15921;SDS011;8060;50.948;3.146;2024-03-06T12:19:42;17.60;;;12.33;;
15921;SDS011;8060;50.948;3.146;2024-03-06T12:22:12;14.20;;;12.70;;
15921;SDS011;8060;50.948;3.146;2024-03-06T12:24:41;14.37;;;12.40;;
15921;SDS011;8060;50.948;3.146;2024-03-06T12:27:10;13.90;;;11.93;;
15921;SDS011;8060;50.948;3.146;2024-03-06T12:29:39;13.70;;;12.10;;
15921;SDS011;8060;50.948;3.146;2024-03-06T12:32:16;18.93;;;12.60;;
15921;SDS011;8060;50.948;3.146;2024-03-06T12:34:55;17.00;;;12.17;;
15921;SDS011;8060;50.948;3.146;2024-03-06T12:37:29;17.47;;;13.00;;
15921;SDS011;8060;50.948;3.146;2024-03-06T12:39:59;16.87;;;12.87;;
15921;SDS011;8060;50.948;3.146;2024-03-06T12:42:27;17.50;;;11.97;;
15921;SDS011;8060;50.948;3.146;2024-03-06T12:44:55;15.03;;;11.00;;
15921;SDS011;8060;50.948;3.146;2024-03-06T12:47:25;13.83;;;9.53;;
15921;SDS011;8060;50.948;3.146;2024-03-06T12:49:54;14.87;;;9.63;;
15921;SDS011;8060;50.948;3.146;2024-03-06T12:52:22;13.30;;;10.87;;
15921;SDS011;8060;50.948;3.146;2024-03-06T12:54:50;11.60;;;10.17;;
15921;SDS011;8060;50.948;3.146;2024-03-06T12:57:18;11.00;;;9.63;;
15921;SDS011;8060;50.948;3.146;2024-03-06T12:59:46;14.37;;;10.07;;
15921;SDS011;8060;50.948;3.146;2024-03-06T13:02:14;12.37;;;9.13;;
15921;SDS011;8060;50.948;3.146;2024-03-06T13:04:44;12.37;;;9.20;;
15921;SDS011;8060;50.948;3.146;2024-03-06T13:07:12;12.83;;;9.87;;
15921;SDS011;8060;50.948;3.146;2024-03-06T13:09:41;13.53;;;9.03;;
15921;SDS011;8060;50.948;3.146;2024-03-06T13:12:09;14.40;;;9.07;;
15921;SDS011;8060;50.948;3.146;2024-03-06T13:14:37;10.27;;;6.70;;
15921;SDS011;8060;50.948;3.146;2024-03-06T13:17:05;8.20;;;4.80;;
15921;SDS011;8060;50.948;3.146;2024-03-06T13:19:34;9.70;;;5.40;;
15921;SDS011;8060;50.948;3.146;2024-03-06T13:22:03;12.17;;;6.10;;
15921;SDS011;8060;50.948;3.146;2024-03-06T13:24:34;9.23;;;5.17;;
15921;SDS011;8060;50.948;3.146;2024-03-06T13:27:07;9.47;;;5.03;;
15921;SDS011;8060;50.948;3.146;2024-03-06T13:29:35;8.50;;;4.87;;
15921;SDS011;8060;50.948;3.146;2024-03-06T13:32:03;8.73;;;4.80;;
15921;SDS011;8060;50.948;3.146;2024-03-06T13:34:32;8.57;;;4.90;;
15921;SDS011;8060;50.948;3.146;2024-03-06T13:37:00;12.60;;;5.40;;
15921;SDS011;8060;50.948;3.146;2024-03-06T13:39:30;8.97;;;4.90;;
15921;SDS011;8060;50.948;3.146;2024-03-06T13:41:58;8.67;;;4.93;;
15921;SDS011;8060;50.948;3.146;2024-03-06T13:44:26;11.83;;;5.50;;
15921;SDS011;8060;50.948;3.146;2024-03-06T13:46:54;8.43;;;5.20;;
15921;SDS011;8060;50.948;3.146;2024-03-06T13:49:34;8.10;;;5.10;;
15921;SDS011;8060;50.948;3.146;2024-03-06T13:52:03;10.07;;;5.20;;
15921;SDS011;8060;50.948;3.146;2024-03-06T13:54:34;8.33;;;5.40;;
15921;SDS011;8060;50.948;3.146;2024-03-06T13:57:03;7.97;;;5.03;;
15921;SDS011;8060;50.948;3.146;2024-03-06T13:59:33;18.03;;;5.33;;
15921;SDS011;8060;50.948;3.146;2024-03-06T14:02:01;10.07;;;5.50;;
15921;SDS011;8060;50.948;3.146;2024-03-06T14:04:30;8.57;;;5.10;;
15921;SDS011;8060;50.948;3.146;2024-03-06T14:06:58;10.33;;;5.20;;
15921;SDS011;8060;50.948;3.146;2024-03-06T14:09:26;9.00;;;6.07;;
15921;SDS011;8060;50.948;3.146;2024-03-06T14:11:57;12.73;;;6.80;;
15921;SDS011;8060;50.948;3.146;2024-03-06T14:14:25;9.67;;;5.60;;
15921;SDS011;8060;50.948;3.146;2024-03-06T14:16:55;14.87;;;5.93;;
15921;SDS011;8060;50.948;3.146;2024-03-06T14:19:23;12.57;;;4.90;;
15921;SDS011;8060;50.948;3.146;2024-03-06T14:21:51;9.00;;;4.20;;
15921;SDS011;8060;50.948;3.146;2024-03-06T14:24:19;14.10;;;4.50;;
15921;SDS011;8060;50.948;3.146;2024-03-06T14:26:47;7.40;;;4.60;;
15921;SDS011;8060;50.948;3.146;2024-03-06T14:29:17;7.97;;;4.00;;
15921;SDS011;8060;50.948;3.146;2024-03-06T14:31:46;6.23;;;4.03;;
15921;SDS011;8060;50.948;3.146;2024-03-06T14:34:14;9.20;;;3.97;;
15921;SDS011;8060;50.948;3.146;2024-03-06T14:36:42;8.93;;;3.60;;
15921;SDS011;8060;50.948;3.146;2024-03-06T14:39:10;7.37;;;4.53;;
15921;SDS011;8060;50.948;3.146;2024-03-06T14:41:39;8.77;;;3.53;;
15921;SDS011;8060;50.948;3.146;2024-03-06T14:44:11;8.63;;;3.60;;
15921;SDS011;8060;50.948;3.146;2024-03-06T14:46:41;6.37;;;3.40;;
15921;SDS011;8060;50.948;3.146;2024-03-06T14:49:09;5.40;;;3.50;;
15921;SDS011;8060;50.948;3.146;2024-03-06T14:51:38;11.20;;;3.97;;
15921;SDS011;8060;50.948;3.146;2024-03-06T14:54:06;7.47;;;3.70;;
15921;SDS011;8060;50.948;3.146;2024-03-06T14:56:34;5.63;;;2.20;;